Time;durP1;ratioP1;P1;durP2;ratioP2;P2;SDS_P1;SDS_P2;PMS_P1;PMS_P2;Temp;Humidity;BMP_temperature;BMP_pressure;BME280_temperature;BME280_humidity;BME280_pressure;Samples;Min_cycle;Max_cycle;Signal;HPM_P1;HPM_P2
2022/11/06 00:00:05;;;;;;;12.50;5.03;;;10.30;99.90;;;;;;5118519;28;20061;-68
2022/11/06 00:02:30;;;;;;;10.30;5.55;;;10.30;99.90;;;;;;5117826;28;20048;-68
2022/11/06 00:06:46;;;;;;;9.65;5.25;;;10.20;99.90;;;;;;5117808;28;20400;-69
2022/11/06 00:07:45;;;;;;;12.57;5.93;;;10.20;99.90;;;;;;5117948;28;20052;-69
2022/11/06 00:10:11;;;;;;;10.15;5.60;;;10.20;99.90;;;;;;5117087;28;20043;-68
2022/11/06 00:12:37;;;;;;;8.95;5.47;;;10.20;99.90;;;;;;5117711;28;20047;-68
2022/11/06 00:15:03;;;;;;;9.18;5.25;;;10.10;99.90;;;;;;5100536;28;20044;-68
2022/11/06 00:17:28;;;;;;;12.35;6.30;;;10.10;99.90;;;;;;5118933;28;20036;-68
2022/11/06 00:19:54;;;;;;;10.93;5.95;;;10.10;99.90;;;;;;5118459;28;20044;-68
2022/11/06 00:22:19;;;;;;;11.45;6.25;;;10.10;99.90;;;;;;5117613;28;20063;-68
2022/11/06 00:24:45;;;;;;;10.88;5.85;;;10.10;99.90;;;;;;5117584;28;20039;-68
2022/11/06 00:27:10;;;;;;;10.00;5.75;;;10.10;99.90;;;;;;5118917;28;20031;-68
2022/11/06 00:29:36;;;;;;;10.60;6.18;;;10.10;99.90;;;;;;5118912;28;20044;-69
2022/11/06 00:32:01;;;;;;;15.95;6.20;;;10.10;99.90;;;;;;5117028;28;20047;-68
2022/11/06 00:34:27;;;;;;;10.43;5.88;;;10.00;99.90;;;;;;5117866;28;20078;-68
2022/11/06 00:36:52;;;;;;;11.35;6.63;;;10.10;99.90;;;;;;5117233;28;20542;-68
2022/11/06 00:39:18;;;;;;;11.18;5.75;;;10.00;99.90;;;;;;5117411;28;20050;-69
2022/11/06 00:41:44;;;;;;;9.77;5.97;;;10.00;99.90;;;;;;5081375;28;1014695;-68
2022/11/06 00:44:09;;;;;;;13.70;6.00;;;10.00;99.90;;;;;;5118364;28;20113;-69
2022/11/06 00:46:36;;;;;;;10.82;6.38;;;10.00;99.90;;;;;;5118109;28;20066;-68
2022/11/06 00:49:01;;;;;;;12.90;6.22;;;10.00;99.90;;;;;;5118534;28;20176;-69
2022/11/06 00:51:29;;;;;;;14.57;6.53;;;9.90;99.90;;;;;;5117860;28;20067;-69
2022/11/06 00:53:58;;;;;;;15.10;6.50;;;10.00;99.90;;;;;;5118495;28;20447;-68
2022/11/06 00:56:25;;;;;;;14.13;6.38;;;9.90;99.90;;;;;;5118001;28;20381;-68
2022/11/06 00:58:50;;;;;;;10.07;6.13;;;9.90;99.90;;;;;;5118221;28;20381;-68
2022/11/06 01:01:20;;;;;;;11.85;6.10;;;9.90;99.90;;;;;;5117773;28;20514;-68
2022/11/06 01:03:53;;;;;;;14.15;6.32;;;9.90;99.90;;;;;;5117773;28;20051;-68
2022/11/06 01:06:21;;;;;;;11.70;6.03;;;9.90;99.90;;;;;;5118334;28;20047;-68
2022/11/06 01:08:48;;;;;;;13.07;5.97;;;9.90;99.90;;;;;;5116979;28;20122;-68
2022/11/06 01:11:18;;;;;;;15.15;7.07;;;9.90;99.90;;;;;;5117402;28;20051;-68
2022/11/06 01:13:44;;;;;;;12.95;6.47;;;9.90;99.90;;;;;;5116440;28;20046;-69
2022/11/06 01:16:13;;;;;;;11.45;7.03;;;9.90;99.90;;;;;;5116669;28;20085;-68
2022/11/06 01:18:41;;;;;;;12.52;6.95;;;9.90;99.90;;;;;;5116819;28;20039;-68
2022/11/06 01:21:09;;;;;;;13.23;7.20;;;9.80;99.90;;;;;;5117514;28;20046;-68
2022/11/06 01:23:34;;;;;;;11.27;7.20;;;9.80;99.90;;;;;;5117007;28;20097;-68
2022/11/06 01:26:02;;;;;;;11.27;7.07;;;9.80;99.90;;;;;;5117155;28;20051;-68
2022/11/06 01:28:28;;;;;;;12.07;6.68;;;9.70;99.90;;;;;;5116932;28;20043;-69
2022/11/06 01:30:54;;;;;;;11.73;6.85;;;9.70;99.90;;;;;;5116958;28;20048;-68
2022/11/06 01:33:20;;;;;;;15.15;7.30;;;9.70;99.90;;;;;;5117805;28;20035;-68
2022/11/06 01:35:47;;;;;;;11.82;7.32;;;9.70;99.90;;;;;;5117400;28;20032;-68
2022/11/06 01:38:13;;;;;;;11.20;6.75;;;9.70;99.90;;;;;;5116929;28;20080;-69
2022/11/06 01:40:43;;;;;;;12.20;7.13;;;9.70;99.90;;;;;;5117353;28;20043;-69
2022/11/06 01:43:22;;;;;;;10.30;6.72;;;9.70;99.90;;;;;;5116863;28;20071;-69
2022/11/06 01:45:53;;;;;;;13.07;7.18;;;9.60;99.90;;;;;;5118488;28;20043;-68
2022/11/06 01:48:22;;;;;;;11.95;7.32;;;9.70;99.90;;;;;;5117233;28;20099;-68
2022/11/06 01:50:52;;;;;;;16.30;7.85;;;9.70;99.90;;;;;;5118073;28;20039;-68
2022/11/06 01:53:19;;;;;;;15.75;7.28;;;9.60;99.90;;;;;;5116559;28;20058;-68
2022/11/06 01:55:48;;;;;;;17.20;7.40;;;9.60;99.90;;;;;;5116413;28;20032;-68
2022/11/06 01:58:18;;;;;;;16.48;7.95;;;9.60;99.90;;;;;;5118238;28;20051;-68
2022/11/06 02:00:44;;;;;;;12.00;6.78;;;9.60;99.90;;;;;;5116848;28;20084;-68
2022/11/06 02:03:11;;;;;;;12.90;7.35;;;9.60;99.90;;;;;;5116872;28;20089;-68
2022/11/06 02:05:38;;;;;;;12.68;7.53;;;9.60;99.90;;;;;;5116714;28;20096;-68
2022/11/06 02:08:04;;;;;;;14.15;7.45;;;9.60;99.90;;;;;;5117111;28;20072;-68
2022/11/06 02:10:31;;;;;;;13.52;7.45;;;9.60;99.90;;;;;;5116673;28;20561;-68
2022/11/06 02:13:06;;;;;;;11.85;7.80;;;9.60;99.90;;;;;;5117597;28;20036;-69
2022/11/06 02:15:43;;;;;;;15.60;8.10;;;9.60;99.90;;;;;;5116257;28;20377;-68
2022/11/06 02:18:27;;;;;;;15.38;7.90;;;9.60;99.90;;;;;;5117486;28;20039;-68
2022/11/06 02:21:01;;;;;;;15.98;8.27;;;9.60;99.90;;;;;;5116373;28;20079;-68
2022/11/06 02:23:51;;;;;;;14.15;7.35;;;9.60;99.90;;;;;;5117999;28;20043;-68
2022/11/06 02:26:42;;;;;;;19.05;7.78;;;9.50;99.90;;;;;;5116188;28;20035;-68
2022/11/06 02:29:15;;;;;;;14.73;7.65;;;9.50;99.90;;;;;;5116280;28;20492;-68
2022/11/06 02:31:44;;;;;;;15.68;7.07;;;9.50;99.90;;;;;;5115882;28;20047;-68
2022/11/06 02:34:13;;;;;;;12.32;7.18;;;9.50;99.90;;;;;;5116381;28;20084;-68
2022/11/06 02:36:49;;;;;;;19.15;7.93;;;9.40;99.90;;;;;;5116576;28;20031;-69
2022/11/06 02:39:18;;;;;;;19.65;8.13;;;9.50;99.90;;;;;;5116554;28;20040;-69
2022/11/06 02:41:45;;;;;;;16.05;7.70;;;9.50;99.90;;;;;;5117143;28;20040;-68
2022/11/06 02:44:17;;;;;;;14.80;7.45;;;9.40;99.90;;;;;;5115682;28;20078;-68
2022/11/06 02:46:48;;;;;;;15.35;7.63;;;9.50;99.90;;;;;;5116376;28;20050;-69
2022/11/06 02:49:24;;;;;;;15.50;7.38;;;9.40;99.90;;;;;;5116483;28;20047;-69
2022/11/06 02:51:55;;;;;;;13.55;7.47;;;9.50;99.90;;;;;;5115969;28;20072;-69
2022/11/06 02:54:23;;;;;;;15.95;7.32;;;9.40;99.90;;;;;;5115715;28;20044;-69
2022/11/06 02:56:51;;;;;;;12.48;7.50;;;9.40;99.90;;;;;;5098718;28;20028;-68
2022/11/06 02:59:24;;;;;;;16.35;7.45;;;9.40;99.90;;;;;;5116018;28;20039;-68
2022/11/06 03:02:04;;;;;;;11.50;7.18;;;9.40;99.90;;;;;;5116486;28;20036;-68
2022/11/06 03:04:35;;;;;;;15.30;6.75;;;9.50;99.90;;;;;;5116109;28;20048;-68
2022/11/06 03:07:46;;;;;;;15.15;7.28;;;9.40;99.90;;;;;;5115806;28;20142;-68
2022/11/06 03:10:12;;;;;;;14.43;6.60;;;9.40;99.90;;;;;;5034380;28;20176;-68
2022/11/06 03:13:04;;;;;;;12.45;6.97;;;9.40;99.90;;;;;;5018002;28;20128;-68
2022/11/06 03:15:32;;;;;;;11.05;6.68;;;9.40;99.90;;;;;;5018227;28;20395;-69
2022/11/06 03:18:08;;;;;;;20.38;6.93;;;9.40;99.90;;;;;;5017922;28;20041;-69
2022/11/06 03:20:48;;;;;;;11.75;6.25;;;9.40;99.90;;;;;;5018043;28;20056;-68
2022/11/06 03:23:27;;;;;;;13.90;7.10;;;9.40;99.90;;;;;;5017870;28;20104;-68
2022/11/06 03:26:02;;;;;;;13.85;6.88;;;9.40;99.90;;;;;;5018031;28;20404;-68
2022/11/06 03:28:36;;;;;;;13.02;7.10;;;9.40;99.90;;;;;;5018272;28;20049;-68
2022/11/06 03:31:08;;;;;;;13.35;6.82;;;9.40;99.90;;;;;;5017104;28;20049;-69
2022/11/06 03:33:46;;;;;;;14.98;6.93;;;9.40;99.90;;;;;;5017320;28;20391;-68
2022/11/06 03:36:21;;;;;;;12.73;7.22;;;9.40;99.90;;;;;;5002671;28;20509;-68
2022/11/06 03:38:54;;;;;;;15.32;7.35;;;9.40;99.90;;;;;;5037570;28;20132;-68
2022/11/06 03:41:42;;;;;;;12.07;7.13;;;9.40;99.90;;;;;;5020583;28;20057;-68
2022/11/06 03:44:13;;;;;;;15.73;7.32;;;9.40;99.90;;;;;;5020462;28;20053;-68
2022/11/06 03:46:45;;;;;;;13.02;7.18;;;9.30;99.90;;;;;;5053548;28;20051;-68
2022/11/06 03:49:17;;;;;;;12.97;6.47;;;9.30;99.90;;;;;;5118832;28;20129;-69
2022/11/06 03:51:57;;;;;;;14.77;6.40;;;9.30;99.90;;;;;;5118727;28;20036;-68
2022/11/06 03:54:36;;;;;;;15.05;6.60;;;9.30;99.90;;;;;;5119286;28;20047;-68
2022/11/06 03:57:10;;;;;;;13.60;6.85;;;9.30;99.90;;;;;;5118923;28;20052;-68
2022/11/06 03:59:42;;;;;;;12.90;6.53;;;9.30;99.90;;;;;;5101360;28;20040;-68
2022/11/06 04:02:08;;;;;;;13.75;6.50;;;9.30;99.90;;;;;;5118378;28;20039;-68
2022/11/06 04:05:11;;;;;;;16.20;6.13;;;9.30;99.90;;;;;;5118695;28;20048;-68
2022/11/06 04:13:56;;;;;;;11.07;5.80;;;9.30;99.90;;;;;;5118782;28;20050;-68
2022/11/06 04:16:08;;;;;;;12.30;6.15;;;9.30;99.90;;;;;;5118639;28;20055;-68
2022/11/06 04:18:33;;;;;;;16.95;6.30;;;9.30;99.90;;;;;;5118294;28;20051;-69
2022/11/06 04:21:20;;;;;;;15.10;6.85;;;9.30;99.90;;;;;;5118688;28;20050;-69
2022/11/06 04:27:29;;;;;;;13.73;5.55;;;9.30;99.90;;;;;;5118054;28;20056;-68
2022/11/06 04:30:04;;;;;;;12.85;6.20;;;9.30;99.90;;;;;;5118398;28;20052;-68
2022/11/06 04:32:46;;;;;;;11.63;5.70;;;9.30;99.90;;;;;;5101364;28;20039;-68
2022/11/06 04:35:45;;;;;;;13.05;5.75;;;9.30;99.90;;;;;;5118043;28;20071;-68
2022/11/06 04:38:24;;;;;;;14.77;6.35;;;9.30;99.90;;;;;;5118490;28;20100;-69
2022/11/06 04:40:53;;;;;;;15.93;6.43;;;9.30;99.90;;;;;;5117853;28;20378;-69
2022/11/06 04:43:41;;;;;;;11.30;5.70;;;9.30;99.90;;;;;;5118237;28;20046;-69
2022/11/06 04:46:12;;;;;;;12.65;5.70;;;9.30;99.90;;;;;;5117814;28;20043;-68
2022/11/06 04:48:38;;;;;;;13.45;5.65;;;9.30;99.90;;;;;;5117562;28;20036;-69
2022/11/06 04:51:08;;;;;;;9.57;4.32;;;9.30;99.90;;;;;;5117676;28;20089;-68
2022/11/06 04:53:34;;;;;;;13.18;5.82;;;9.30;99.90;;;;;;5118395;28;20070;-68
2022/11/06 04:56:09;;;;;;;15.32;5.53;;;9.30;99.90;;;;;;5117892;28;20118;-69
2022/11/06 04:58:35;;;;;;;9.40;4.78;;;9.30;99.90;;;;;;5117871;28;20116;-69
2022/11/06 05:01:01;;;;;;;15.60;5.57;;;9.30;99.90;;;;;;5118799;28;20044;-69
2022/11/06 05:03:26;;;;;;;9.73;5.35;;;9.30;99.90;;;;;;5117892;28;20097;-68
2022/11/06 05:05:52;;;;;;;11.80;5.28;;;9.30;99.90;;;;;;5117922;28;20068;-68
2022/11/06 05:08:19;;;;;;;10.80;4.97;;;9.30;99.90;;;;;;5117833;28;20039;-68
2022/11/06 05:10:46;;;;;;;11.80;5.15;;;9.30;99.90;;;;;;5117969;28;20522;-68
2022/11/06 05:13:13;;;;;;;12.60;5.45;;;9.30;99.90;;;;;;5117993;28;20035;-69
2022/11/06 05:15:39;;;;;;;12.82;4.90;;;9.30;99.90;;;;;;5117927;28;20040;-68
2022/11/06 05:18:05;;;;;;;10.40;4.55;;;9.40;99.90;;;;;;5118246;28;20038;-68
2022/11/06 05:20:31;;;;;;;11.15;4.88;;;9.40;99.90;;;;;;5118162;28;20054;-68
2022/11/06 05:22:57;;;;;;;15.70;4.85;;;9.30;99.90;;;;;;5118276;28;20097;-68
2022/11/06 05:25:24;;;;;;;12.63;5.18;;;9.40;99.90;;;;;;5118758;28;20483;-69
2022/11/06 05:27:49;;;;;;;9.30;4.65;;;9.30;99.90;;;;;;5117800;28;20061;-69
2022/11/06 05:30:16;;;;;;;10.13;4.55;;;9.40;99.90;;;;;;5118852;28;20032;-69
2022/11/06 05:32:41;;;;;;;15.35;5.43;;;9.40;99.90;;;;;;5117355;28;20109;-69
2022/11/06 05:35:07;;;;;;;11.25;4.70;;;9.40;99.90;;;;;;5117101;28;20035;-69
2022/11/06 05:37:32;;;;;;;8.90;4.38;;;9.40;99.90;;;;;;5117614;28;20080;-69
2022/11/06 05:39:58;;;;;;;10.02;4.53;;;9.40;99.90;;;;;;5117983;28;20412;-68
2022/11/06 05:42:23;;;;;;;11.85;4.35;;;9.40;99.90;;;;;;5117457;28;20075;-68
2022/11/06 05:44:49;;;;;;;14.30;4.18;;;9.40;99.90;;;;;;5118179;28;20043;-68
2022/11/06 05:47:14;;;;;;;16.63;4.43;;;9.40;99.90;;;;;;5117969;28;20036;-68
2022/11/06 05:49:40;;;;;;;12.23;4.03;;;9.40;99.90;;;;;;5117614;28;20050;-69
2022/11/06 05:52:06;;;;;;;17.52;4.43;;;9.40;99.90;;;;;;5116961;28;20061;-68
2022/11/06 05:54:32;;;;;;;10.95;4.03;;;9.40;99.90;;;;;;5100158;28;20046;-68
2022/11/06 05:56:57;;;;;;;15.52;4.07;;;9.40;99.90;;;;;;5116108;28;20039;-68
2022/11/06 05:59:23;;;;;;;11.52;3.83;;;9.40;99.90;;;;;;5100482;28;20035;-68
2022/11/06 06:01:49;;;;;;;15.98;4.57;;;9.40;99.90;;;;;;5117213;28;20118;-68
2022/11/06 06:04:14;;;;;;;9.02;3.30;;;9.50;99.90;;;;;;5117592;28;20074;-69
2022/11/06 06:06:40;;;;;;;10.35;3.53;;;9.50;99.90;;;;;;5116635;28;20054;-69
2022/11/06 06:09:06;;;;;;;14.23;3.20;;;9.50;99.90;;;;;;5116781;28;20046;-69
2022/11/06 06:11:31;;;;;;;13.27;3.40;;;9.40;99.90;;;;;;5118422;28;20039;-68
2022/11/06 06:13:58;;;;;;;10.77;3.28;;;9.50;99.90;;;;;;5117332;28;20031;-68
2022/11/06 06:16:23;;;;;;;12.95;3.40;;;9.50;99.90;;;;;;5116826;28;20039;-68
2022/11/06 06:18:50;;;;;;;8.65;3.03;;;9.50;99.90;;;;;;5117098;28;20031;-69
2022/11/06 06:21:16;;;;;;;11.80;3.60;;;9.50;99.90;;;;;;5116651;28;20065;-68
2022/11/06 06:23:42;;;;;;;8.98;3.33;;;9.60;99.90;;;;;;5117210;28;20095;-69
2022/11/06 06:26:08;;;;;;;17.05;3.95;;;9.60;99.90;;;;;;5116561;28;20453;-69
2022/11/06 06:28:33;;;;;;;9.32;3.25;;;9.60;99.90;;;;;;5116697;28;20058;-69
2022/11/06 06:31:03;;;;;;;11.80;3.60;;;9.60;99.90;;;;;;5116796;28;20411;-68
2022/11/06 06:33:29;;;;;;;14.48;3.72;;;9.60;99.90;;;;;;5117554;28;20050;-68
2022/11/06 06:35:55;;;;;;;12.00;3.50;;;9.60;99.90;;;;;;5100120;28;20407;-68
2022/11/06 06:38:20;;;;;;;7.93;3.20;;;9.70;99.90;;;;;;5116484;28;20096;-68
2022/11/06 06:40:46;;;;;;;12.85;3.05;;;9.70;99.90;;;;;;5117985;28;20050;-68
2022/11/06 06:43:11;;;;;;;12.98;3.60;;;9.70;99.90;;;;;;5116570;28;20058;-68
2022/11/06 06:45:37;;;;;;;12.18;3.58;;;9.70;99.90;;;;;;5099900;28;20054;-68
2022/11/06 06:48:04;;;;;;;11.88;2.92;;;9.70;99.90;;;;;;5116235;28;20055;-69
2022/11/06 06:50:30;;;;;;;9.00;2.95;;;9.70;99.90;;;;;;5115904;28;20085;-70
2022/11/06 06:52:57;;;;;;;12.77;3.25;;;9.80;99.90;;;;;;5115802;28;20076;-69
2022/11/06 06:55:24;;;;;;;10.18;3.42;;;9.80;99.90;;;;;;5115708;28;20062;-69
2022/11/06 06:57:55;;;;;;;12.50;3.30;;;9.80;99.90;;;;;;5116106;28;20085;-69
2022/11/06 07:00:21;;;;;;;11.70;3.10;;;9.80;99.90;;;;;;5098996;28;20047;-69
2022/11/06 07:02:46;;;;;;;10.05;2.80;;;9.80;99.90;;;;;;5116575;28;20050;-68
2022/11/06 07:05:12;;;;;;;11.98;2.78;;;9.90;99.90;;;;;;5115895;28;20131;-68
2022/11/06 07:07:37;;;;;;;11.20;2.78;;;9.90;99.90;;;;;;5116588;28;20067;-68
2022/11/06 07:10:03;;;;;;;11.20;3.13;;;9.90;99.90;;;;;;5116604;28;20143;-68
2022/11/06 07:12:29;;;;;;;10.23;2.90;;;9.90;99.90;;;;;;5118750;28;20081;-69
2022/11/06 07:14:54;;;;;;;13.85;3.20;;;9.90;99.90;;;;;;5119634;28;20133;-68
2022/11/06 07:17:20;;;;;;;11.45;2.72;;;9.90;99.90;;;;;;5119720;28;20031;-69
2022/11/06 07:19:45;;;;;;;8.63;2.70;;;10.00;99.90;;;;;;5102486;28;20042;-69
2022/11/06 07:22:11;;;;;;;9.77;2.78;;;10.00;99.90;;;;;;5119077;28;20050;-69
2022/11/06 07:24:37;;;;;;;11.77;2.47;;;10.00;99.90;;;;;;5118368;28;20035;-69
2022/11/06 07:27:02;;;;;;;11.27;2.42;;;10.10;99.90;;;;;;5101916;28;20036;-69
2022/11/06 07:29:28;;;;;;;9.38;2.50;;;10.10;99.90;;;;;;5118611;28;20043;-69
2022/11/06 07:31:53;;;;;;;13.82;3.00;;;10.10;99.90;;;;;;5119237;28;20450;-69
2022/11/06 07:34:19;;;;;;;13.50;2.47;;;10.10;99.90;;;;;;5118715;28;20561;-69
2022/11/06 07:36:44;;;;;;;5.82;2.50;;;10.10;99.90;;;;;;5119999;28;20039;-69
2022/11/06 07:39:10;;;;;;;11.95;2.80;;;10.10;99.90;;;;;;5120587;28;20027;-68
2022/11/06 07:41:36;;;;;;;13.93;2.92;;;10.20;99.90;;;;;;5120599;28;20449;-69
2022/11/06 07:44:02;;;;;;;9.35;2.88;;;10.20;99.90;;;;;;5120195;28;20039;-73
2022/11/06 07:46:28;;;;;;;8.10;2.15;;;10.20;99.90;;;;;;5119277;28;20148;-69
2022/11/06 07:48:53;;;;;;;9.90;2.45;;;10.30;99.90;;;;;;5118740;28;20043;-70
2022/11/06 07:51:19;;;;;;;10.88;2.88;;;10.20;99.90;;;;;;5119377;28;20062;-68
2022/11/06 07:53:45;;;;;;;9.98;2.40;;;10.20;99.90;;;;;;5103137;28;20044;-68
2022/11/06 07:56:10;;;;;;;12.55;2.53;;;10.20;99.90;;;;;;5119413;28;20047;-68
2022/11/06 07:58:37;;;;;;;10.13;2.42;;;10.20;99.90;;;;;;5119912;28;20036;-68
2022/11/06 08:01:03;;;;;;;8.95;2.35;;;10.20;99.90;;;;;;5119801;28;20039;-69
2022/11/06 08:03:29;;;;;;;10.60;2.45;;;10.20;99.90;;;;;;5119845;28;20036;-69
2022/11/06 08:05:55;;;;;;;9.77;2.53;;;10.20;99.90;;;;;;5119335;28;20058;-69
2022/11/06 08:08:21;;;;;;;10.65;2.65;;;10.30;99.90;;;;;;5119424;28;20044;-69
2022/11/06 08:10:46;;;;;;;6.63;2.05;;;10.30;99.90;;;;;;5118557;28;20031;-69
2022/11/06 08:13:14;;;;;;;9.90;2.40;;;10.30;99.90;;;;;;5119713;28;20442;-69
2022/11/06 08:15:40;;;;;;;7.90;2.00;;;10.40;99.90;;;;;;5119712;28;20040;-69
2022/11/06 08:18:07;;;;;;;9.95;2.53;;;10.40;99.90;;;;;;5119255;28;20105;-69
2022/11/06 08:20:37;;;;;;;11.30;2.90;;;10.40;99.90;;;;;;5119368;28;20430;-69
2022/11/06 08:23:05;;;;;;;7.70;2.17;;;10.40;99.90;;;;;;5118882;28;20043;-69
2022/11/06 08:25:31;;;;;;;14.85;2.90;;;10.40;99.90;;;;;;5118985;28;20048;-68
2022/11/06 08:27:59;;;;;;;8.55;2.22;;;10.40;99.90;;;;;;5118539;28;20039;-69
2022/11/06 08:30:27;;;;;;;8.38;2.67;;;10.30;99.90;;;;;;5120067;28;20046;-69
2022/11/06 08:32:53;;;;;;;9.15;2.80;;;10.40;99.90;;;;;;5120599;28;20099;-69
2022/11/06 08:35:18;;;;;;;10.75;2.63;;;10.30;99.90;;;;;;5101630;28;20067;-68
2022/11/06 08:37:44;;;;;;;9.02;2.63;;;10.30;99.90;;;;;;5118367;28;20040;-69
2022/11/06 08:40:10;;;;;;;10.02;2.30;;;10.30;99.90;;;;;;5119962;28;20077;-68
2022/11/06 08:42:35;;;;;;;9.35;2.35;;;10.30;99.90;;;;;;5119613;28;20050;-69
2022/11/06 08:45:01;;;;;;;10.13;2.40;;;10.30;99.90;;;;;;5118298;28;20052;-68
2022/11/06 08:47:27;;;;;;;11.27;2.50;;;10.30;99.90;;;;;;5118503;28;20067;-69
2022/11/06 08:49:52;;;;;;;11.30;2.95;;;10.30;99.90;;;;;;5118447;28;20048;-69
2022/11/06 08:52:18;;;;;;;10.50;2.60;;;10.30;99.90;;;;;;5118526;28;20101;-69
2022/11/06 08:54:43;;;;;;;8.25;2.38;;;10.30;99.90;;;;;;5118073;28;20035;-69
2022/11/06 08:57:09;;;;;;;10.25;2.35;;;10.30;99.90;;;;;;5119203;28;20039;-69
2022/11/06 08:59:34;;;;;;;8.98;2.00;;;10.30;99.90;;;;;;5118707;28;20039;-69
2022/11/06 09:02:01;;;;;;;7.38;2.13;;;10.30;99.90;;;;;;5118927;28;20043;-69
2022/11/06 09:04:26;;;;;;;9.32;2.35;;;10.40;99.90;;;;;;5118553;28;20120;-69
2022/11/06 09:06:52;;;;;;;7.43;2.33;;;10.40;99.90;;;;;;5117446;28;20067;-69
2022/11/06 09:09:18;;;;;;;10.02;2.58;;;10.50;99.90;;;;;;5118983;28;20054;-69
2022/11/06 09:11:43;;;;;;;8.82;2.72;;;10.50;99.90;;;;;;5117791;28;20511;-68
2022/11/06 09:14:09;;;;;;;9.10;2.38;;;10.60;99.90;;;;;;5117983;28;20042;-69
2022/11/06 09:16:34;;;;;;;8.60;2.35;;;10.60;99.90;;;;;;5117949;28;20040;-70
2022/11/06 09:19:00;;;;;;;10.65;2.33;;;10.60;99.90;;;;;;5117235;28;20093;-69
2022/11/06 09:21:25;;;;;;;9.05;1.98;;;10.70;99.90;;;;;;5114925;28;20118;-72
2022/11/06 09:23:51;;;;;;;6.85;2.13;;;10.70;99.90;;;;;;5114349;28;20075;-72
2022/11/06 09:26:17;;;;;;;11.57;2.67;;;10.90;99.90;;;;;;5114303;28;20050;-72
2022/11/06 09:28:43;;;;;;;6.90;2.33;;;11.10;99.90;;;;;;5114677;28;20039;-72
2022/11/06 09:31:08;;;;;;;9.65;2.42;;;11.30;99.90;;;;;;5114330;28;20036;-71
2022/11/06 09:33:34;;;;;;;9.82;2.10;;;11.40;99.90;;;;;;5115285;28;20031;-69
2022/11/06 09:36:03;;;;;;;10.43;2.15;;;11.60;99.90;;;;;;5115897;28;20122;-69
2022/11/06 09:38:29;;;;;;;8.60;2.28;;;11.70;99.90;;;;;;5115994;28;20088;-69
2022/11/06 09:40:57;;;;;;;8.10;2.05;;;11.80;99.90;;;;;;5115371;28;20122;-69
2022/11/06 09:43:35;;;;;;;6.28;2.10;;;11.90;99.90;;;;;;5116260;28;20039;-69
2022/11/06 09:46:28;;;;;;;8.18;2.25;;;12.00;99.90;;;;;;5116325;28;20044;-69
2022/11/06 09:49:04;;;;;;;7.70;2.08;;;12.00;99.90;;;;;;5105410;28;20063;-70
2022/11/06 09:51:43;;;;;;;7.63;1.90;;;12.00;99.90;;;;;;5115057;28;20054;-69
2022/11/06 09:54:18;;;;;;;8.70;2.28;;;12.00;99.90;;;;;;5115596;28;20047;-69
2022/11/06 09:56:47;;;;;;;9.40;1.77;;;12.00;99.90;;;;;;5116386;28;20067;-69
2022/11/06 09:59:16;;;;;;;8.63;1.95;;;11.80;99.90;;;;;;5116069;28;20046;-69
2022/11/06 10:01:46;;;;;;;9.93;1.85;;;11.80;99.90;;;;;;5116191;28;20129;-69
2022/11/06 10:04:44;;;;;;;9.43;2.10;;;11.70;99.90;;;;;;5098649;28;20130;-69
2022/11/06 10:07:35;;;;;;;7.75;1.70;;;11.70;99.90;;;;;;5116021;28;20118;-70
2022/11/06 10:10:05;;;;;;;5.43;1.92;;;11.60;99.90;;;;;;5117020;28;20407;-70
2022/11/06 10:12:54;;;;;;;6.93;2.15;;;11.50;99.90;;;;;;5117190;28;20066;-69
2022/11/06 10:15:28;;;;;;;11.32;2.28;;;11.50;99.90;;;;;;5116591;28;20040;-69
2022/11/06 10:18:21;;;;;;;9.23;2.00;;;11.50;99.90;;;;;;5116717;28;20050;-70
2022/11/06 10:20:53;;;;;;;5.65;1.92;;;11.50;99.90;;;;;;5117832;28;20179;-71
2022/11/06 10:23:38;;;;;;;8.93;1.77;;;11.50;99.90;;;;;;5115097;28;20036;-71
2022/11/06 10:26:11;;;;;;;5.25;1.73;;;11.50;99.90;;;;;;5115412;28;20035;-71
2022/11/06 10:28:43;;;;;;;;;;;11.40;99.90;;;;;;5116536;28;20044;-71
2022/11/06 10:31:20;;;;;;;6.60;1.67;;;11.40;99.90;;;;;;5115186;28;19915;-71
2022/11/06 10:34:12;;;;;;;9.52;1.90;;;11.40;99.90;;;;;;5115231;28;20039;-72
2022/11/06 10:36:47;;;;;;;7.72;1.58;;;11.50;99.90;;;;;;5114893;28;20115;-70
2022/11/06 10:39:21;;;;;;;7.82;2.20;;;11.50;99.90;;;;;;5115701;28;20043;-70
2022/11/06 10:41:53;;;;;;;5.72;1.73;;;11.50;99.90;;;;;;5114591;28;20051;-70
2022/11/06 10:44:26;;;;;;;9.95;1.92;;;11.50;99.90;;;;;;5116912;28;20043;-70
2022/11/06 10:47:02;;;;;;;9.02;1.92;;;11.60;99.90;;;;;;5118576;28;20047;-72
2022/11/06 10:49:28;;;;;;;9.23;2.78;;;11.60;99.90;;;;;;5118513;28;20120;-70
2022/11/06 10:52:13;;;;;;;7.35;1.70;;;11.60;99.90;;;;;;5119092;28;20067;-70
2022/11/06 10:54:54;;;;;;;9.75;1.67;;;11.60;99.90;;;;;;5119300;28;20040;-70
2022/11/06 10:57:35;;;;;;;7.97;1.92;;;11.60;99.90;;;;;;5119630;28;20115;-70
2022/11/06 11:00:01;;;;;;;9.60;2.00;;;11.60;99.90;;;;;;5119785;28;20039;-70
2022/11/06 11:02:32;;;;;;;9.35;1.90;;;11.50;99.90;;;;;;5119104;28;20069;-69
2022/11/06 11:04:57;;;;;;;7.60;1.90;;;11.60;99.90;;;;;;5101451;28;20046;-70
2022/11/06 11:07:28;;;;;;;8.23;1.77;;;11.50;99.90;;;;;;5118591;28;20035;-70
2022/11/06 11:09:53;;;;;;;10.55;1.60;;;11.50;99.90;;;;;;5118626;28;20039;-70
2022/11/06 11:12:30;;;;;;;7.47;2.22;;;11.60;99.90;;;;;;5118878;28;20460;-69
2022/11/06 11:15:17;;;;;;;8.57;1.73;;;11.60;99.90;;;;;;5118840;28;20407;-69
2022/11/06 11:18:08;;;;;;;5.97;1.85;;;11.60;99.90;;;;;;5118113;28;20047;-70
2022/11/06 11:20:37;;;;;;;6.43;1.88;;;11.60;99.90;;;;;;5117767;28;20039;-69
2022/11/06 11:23:08;;;;;;;9.55;2.03;;;11.60;99.90;;;;;;5117617;28;20051;-70
2022/11/06 11:25:34;;;;;;;12.85;2.10;;;11.60;99.90;;;;;;5117412;28;20044;-70
2022/11/06 11:28:00;;;;;;;6.63;2.35;;;11.60;99.90;;;;;;5117388;28;20043;-70
2022/11/06 11:30:28;;;;;;;8.75;2.00;;;11.70;99.90;;;;;;5118061;28;20052;-69
2022/11/06 11:32:56;;;;;;;10.05;2.00;;;11.70;99.90;;;;;;5118109;28;20050;-69
2022/11/06 11:35:29;;;;;;;9.02;1.95;;;11.70;99.90;;;;;;5118293;28;20035;-69
2022/11/06 11:38:13;;;;;;;6.18;1.67;;;11.70;99.90;;;;;;5118432;28;20089;-69
2022/11/06 11:40:40;;;;;;;9.85;1.90;;;11.70;99.90;;;;;;5117922;28;20089;-69
2022/11/06 11:43:24;;;;;;;7.88;2.13;;;11.70;99.90;;;;;;5119000;28;20047;-69
2022/11/06 11:46:16;;;;;;;9.82;2.33;;;11.70;99.90;;;;;;5101100;28;20044;-69
2022/11/06 11:48:56;;;;;;;6.38;1.85;;;11.80;99.90;;;;;;5117912;28;20049;-69
2022/11/06 11:51:39;;;;;;;10.48;1.70;;;11.80;99.90;;;;;;5117929;28;20048;-69
2022/11/06 11:54:11;;;;;;;10.90;2.30;;;11.90;99.90;;;;;;5118157;28;20486;-69
2022/11/06 11:56:47;;;;;;;7.15;2.20;;;11.90;99.90;;;;;;5117222;28;20508;-70
2022/11/06 11:59:41;;;;;;;7.97;2.00;;;12.00;99.90;;;;;;5117689;28;20069;-70
2022/11/06 12:02:16;;;;;;;7.78;1.50;;;12.00;99.90;;;;;;5107770;28;20043;-69
2022/11/06 12:04:46;;;;;;;6.72;1.52;;;12.00;99.90;;;;;;5117191;28;20036;-69
2022/11/06 12:07:26;;;;;;;6.28;1.50;;;12.10;99.90;;;;;;5118221;28;20047;-69
2022/11/06 12:09:52;;;;;;;8.10;1.98;;;12.20;99.90;;;;;;5118454;28;20557;-69
2022/11/06 12:12:25;;;;;;;7.90;1.85;;;12.20;99.90;;;;;;5117363;28;20036;-69
2022/11/06 12:15:20;;;;;;;7.95;1.63;;;12.30;99.90;;;;;;5117515;28;20044;-69
2022/11/06 12:18:05;;;;;;;6.10;1.65;;;12.30;99.90;;;;;;5106464;28;20124;-69
2022/11/06 12:20:57;;;;;;;9.15;1.73;;;12.30;99.90;;;;;;5117282;28;20039;-69
2022/11/06 12:23:41;;;;;;;7.70;1.52;;;12.40;99.90;;;;;;5117086;28;20058;-69
2022/11/06 12:26:31;;;;;;;8.55;1.60;;;12.50;99.90;;;;;;5117243;28;20047;-70
2022/11/06 12:29:21;;;;;;;6.68;1.45;;;12.50;99.90;;;;;;5117780;28;20054;-70
2022/11/06 12:32:12;;;;;;;10.25;1.65;;;12.60;99.90;;;;;;5117008;28;20046;-69
2022/11/06 12:35:02;;;;;;;6.35;1.40;;;12.60;99.90;;;;;;5116220;28;20040;-70
2022/11/06 12:37:36;;;;;;;6.65;1.50;;;12.70;99.90;;;;;;5118797;28;20031;-70
2022/11/06 12:40:15;;;;;;;8.77;2.03;;;12.70;99.90;;;;;;5116952;28;20432;-69
2022/11/06 12:43:03;;;;;;;7.40;1.35;;;12.70;99.90;;;;;;5117170;28;20067;-69
2022/11/06 12:46:10;;;;;;;8.65;1.70;;;12.60;99.90;;;;;;5117586;28;20051;-69
2022/11/06 12:49:07;;;;;;;6.85;1.30;;;12.60;99.90;;;;;;5045830;28;20065;-69
2022/11/06 12:51:46;;;;;;;7.82;1.52;;;12.50;99.90;;;;;;5116519;28;20036;-69
2022/11/06 12:54:33;;;;;;;7.15;1.45;;;12.40;99.90;;;;;;5117026;28;20384;-69
2022/11/06 12:57:19;;;;;;;8.55;2.30;;;12.40;99.90;;;;;;5116895;28;20039;-69
2022/11/06 12:59:55;;;;;;;5.35;1.30;;;12.40;99.90;;;;;;5116769;28;20476;-69
2022/11/06 13:02:26;;;;;;;6.30;1.55;;;12.30;99.90;;;;;;5116624;28;20533;-69
2022/11/06 13:05:00;;;;;;;7.15;1.73;;;12.30;99.90;;;;;;5117049;28;20081;-69
2022/11/06 13:07:26;;;;;;;10.50;1.77;;;12.30;99.90;;;;;;5115160;28;20062;-69
2022/11/06 13:10:06;;;;;;;9.68;1.77;;;12.30;99.90;;;;;;5115822;28;20124;-69
2022/11/06 13:12:58;;;;;;;6.80;1.40;;;12.30;99.90;;;;;;5115692;28;20048;-69
2022/11/06 13:15:41;;;;;;;6.72;1.30;;;12.30;99.90;;;;;;5099130;28;20075;-69